Time;durP1;ratioP1;P1;durP2;ratioP2;P2;SDS_P1;SDS_P2;PMS_P1;PMS_P2;Temp;Humidity;BMP_temperature;BMP_pressure;BME280_temperature;BME280_humidity;BME280_pressure;Samples;Min_cycle;Max_cycle;Signal;HPM_P1;HPM_P2
2021/06/22 00:00:49;;;;;;;;;;;25.20;51.00;;;;;;4976932;28;20116;-85
2021/06/22 00:03:16;;;;;;;25.27;22.67;;;25.20;50.90;;;;;;4992832;28;20391;-84
2021/06/22 00:05:42;;;;;;;;;;;25.20;52.00;;;;;;4975654;28;20052;-84
2021/06/22 00:08:08;;;;;;;25.20;22.55;;;25.20;50.70;;;;;;4974867;28;19925;-84
2021/06/22 00:10:35;;;;;;;25.48;23.25;;;25.10;50.60;;;;;;4990450;28;20511;-85
2021/06/22 00:13:01;;;;;;;24.70;22.42;;;25.10;50.90;;;;;;4974997;28;20033;-84
2021/06/22 00:15:28;;;;;;;;;;;25.10;51.10;;;;;;4959649;28;20057;-87
2021/06/22 00:17:54;;;;;;;25.02;22.45;;;25.00;51.00;;;;;;4974797;28;19989;-87
2021/06/22 00:20:22;;;;;;;24.58;22.35;;;25.00;50.90;;;;;;4958723;28;20033;-87
2021/06/22 00:22:49;;;;;;;25.55;22.77;;;25.00;51.20;;;;;;4973681;28;20033;-85
2021/06/22 00:25:16;;;;;;;24.55;22.33;;;25.00;51.30;;;;;;4957309;28;20119;-85
2021/06/22 00:27:43;;;;;;;25.45;23.05;;;24.90;51.50;;;;;;4973512;28;20037;-87
2021/06/22 00:30:10;;;;;;;24.77;22.75;;;24.90;51.70;;;;;;4974552;28;20037;-85
2021/06/22 00:32:37;;;;;;;24.75;22.45;;;24.90;51.80;;;;;;4973451;28;20127;-86
2021/06/22 00:35:05;;;;;;;25.17;22.50;;;24.90;52.00;;;;;;4973062;28;20037;-86
2021/06/22 00:37:31;;;;;;;25.98;23.30;;;24.80;52.00;;;;;;4956842;28;20037;-85
2021/06/22 00:39:58;;;;;;;26.70;24.10;;;24.80;53.30;;;;;;4989203;28;20037;-86
2021/06/22 00:42:24;;;;;;;25.23;22.98;;;24.80;52.10;;;;;;4957426;28;20075;-85
2021/06/22 00:44:52;;;;;;;;;;;24.80;52.20;;;;;;4989247;28;20051;-85
2021/06/22 00:47:19;;;;;;;25.77;23.02;;;24.80;52.00;;;;;;5004846;28;20334;-86
2021/06/22 00:49:47;;;;;;;25.45;22.77;;;24.90;52.00;;;;;;5005192;28;20036;-85
2021/06/22 00:52:13;;;;;;;25.45;22.65;;;24.90;52.30;;;;;;4957092;28;20036;-85
2021/06/22 00:54:40;;;;;;;;;;;24.90;52.50;;;;;;4989300;28;20036;-85
2021/06/22 00:57:07;;;;;;;25.20;22.88;;;25.00;52.50;;;;;;4972229;28;19936;-86
2021/06/22 00:59:34;;;;;;;25.13;22.70;;;25.00;53.90;;;;;;4986889;28;20039;-85
2021/06/22 01:02:01;;;;;;;;;;;25.10;52.70;;;;;;4988821;28;20451;-86
2021/06/22 01:04:28;;;;;;;25.65;23.13;;;25.20;52.50;;;;;;5002659;28;19925;-84
2021/06/22 01:06:58;;;;;;;25.42;22.88;;;25.30;52.40;;;;;;4988300;28;20515;-85
2021/06/22 01:09:25;;;;;;;25.67;23.02;;;25.30;52.50;;;;;;4972931;28;20046;-84
2021/06/22 01:11:51;;;;;;;24.73;22.38;;;25.40;52.70;;;;;;4973094;28;20048;-86
2021/06/22 01:14:18;;;;;;;25.60;22.83;;;25.40;52.70;;;;;;4972597;28;20040;-86
2021/06/22 01:16:44;;;;;;;25.65;22.98;;;25.50;52.60;;;;;;4973069;28;20507;-85
2021/06/22 01:19:11;;;;;;;25.10;22.33;;;25.50;52.50;;;;;;4988298;28;20044;-86
2021/06/22 01:21:38;;;;;;;28.70;23.48;;;25.60;52.60;;;;;;4978044;28;20539;-86
2021/06/22 01:24:06;;;;;;;25.83;23.08;;;25.70;52.50;;;;;;4956591;28;20064;-85
2021/06/22 01:26:37;;;;;;;25.15;22.73;;;25.70;52.30;;;;;;4972871;28;20041;-84
2021/06/22 01:29:08;;;;;;;36.28;25.02;;;25.80;52.20;;;;;;5004588;28;20049;-85
2021/06/22 01:31:35;;;;;;;37.13;23.55;;;25.90;52.10;;;;;;4972550;28;20050;-85
2021/06/22 01:34:01;;;;;;;37.25;24.77;;;25.90;52.00;;;;;;4972105;28;20044;-85
2021/06/22 01:36:30;;;;;;;;;;;26.00;51.90;;;;;;4989036;28;20033;-85
2021/06/22 01:38:56;;;;;;;28.15;23.00;;;26.10;51.80;;;;;;5020709;28;19939;-84
2021/06/22 01:41:23;;;;;;;28.88;23.05;;;26.20;51.50;;;;;;4955859;28;20051;-84
2021/06/22 01:43:50;;;;;;;26.58;22.90;;;26.20;51.50;;;;;;5022240;28;20056;-90
2021/06/22 01:46:16;;;;;;;25.55;22.95;;;26.30;51.50;;;;;;4971970;28;20041;-85
2021/06/22 01:48:44;;;;;;;26.30;23.50;;;26.30;51.40;;;;;;5005224;28;20033;-87
2021/06/22 01:51:11;;;;;;;25.52;22.83;;;26.40;51.50;;;;;;4974058;28;20114;-87
2021/06/22 01:53:37;;;;;;;24.65;22.05;;;26.40;51.30;;;;;;4974118;28;20119;-88
2021/06/22 01:56:04;;;;;;;25.48;22.02;;;26.50;51.20;;;;;;4989913;28;20094;-87
2021/06/22 01:58:31;;;;;;;25.38;22.67;;;26.60;51.00;;;;;;4974108;28;20036;-87
2021/06/22 02:00:58;;;;;;;26.15;23.10;;;26.70;50.90;;;;;;4972668;28;20033;-87
2021/06/22 02:03:26;;;;;;;25.55;23.00;;;26.80;50.80;;;;;;5005008;28;20033;-87
2021/06/22 02:05:53;;;;;;;26.48;21.98;;;26.90;50.80;;;;;;4973366;28;20040;-89
2021/06/22 02:08:20;;;;;;;24.15;21.70;;;26.90;50.60;;;;;;4973223;28;20524;-90
2021/06/22 02:10:47;;;;;;;23.77;20.70;;;27.00;50.40;;;;;;5003821;28;20071;-92
2021/06/22 02:13:13;;;;;;;23.30;19.63;;;27.20;50.50;;;;;;4973529;28;20412;-89
2021/06/22 02:15:41;;;;;;;27.65;20.80;;;27.60;50.50;;;;;;4972807;28;20045;-88
2021/06/22 02:18:07;;;;;;;21.80;19.48;;;28.00;50.10;;;;;;4973360;28;20033;-89
2021/06/22 02:20:40;;;;;;;30.50;19.35;;;28.50;49.20;;;;;;5005005;28;20032;-89
2021/06/22 02:23:07;;;;;;;22.05;18.83;;;29.20;48.20;;;;;;4990322;28;20040;-88
2021/06/22 02:25:34;;;;;;;22.88;18.83;;;29.80;46.90;;;;;;4973968;28;20615;-90
2021/06/22 02:28:08;;;;;;;21.70;18.38;;;30.30;45.50;;;;;;4958944;28;20127;-87
2021/06/22 02:30:35;;;;;;;24.80;18.08;;;30.80;44.40;;;;;;4992606;28;20520;-86
2021/06/22 02:33:01;;;;;;;19.25;17.15;;;31.40;43.20;;;;;;4988598;28;20055;-86
2021/06/22 02:35:28;;;;;;;23.95;16.73;;;31.90;42.10;;;;;;4974338;28;20041;-86
2021/06/22 02:37:56;;;;;;;17.80;16.05;;;32.40;40.90;;;;;;4988685;28;20048;-86
2021/06/22 02:40:23;;;;;;;17.88;16.00;;;32.90;39.80;;;;;;4973300;28;20041;-86
2021/06/22 02:42:50;;;;;;;35.42;16.45;;;33.40;38.70;;;;;;4996813;28;20033;-87
2021/06/22 02:45:17;;;;;;;17.65;15.85;;;33.80;37.50;;;;;;4998044;28;20036;-89
2021/06/22 02:47:44;;;;;;;18.42;16.50;;;34.10;36.40;;;;;;4981868;28;20040;-86
2021/06/22 02:50:12;;;;;;;18.80;16.73;;;34.40;35.00;;;;;;5009546;28;20040;-87
2021/06/22 02:52:39;;;;;;;16.77;15.20;;;34.60;34.10;;;;;;4959056;28;20045;-86
2021/06/22 02:55:06;;;;;;;18.63;15.77;;;34.80;33.40;;;;;;4971443;28;20057;-87
2021/06/22 02:57:32;;;;;;;21.02;17.27;;;34.80;32.80;;;;;;4968837;28;20102;-87
2021/06/22 02:59:59;;;;;;;17.75;16.13;;;34.70;32.60;;;;;;4968348;28;20095;-87
2021/06/22 03:02:25;;;;;;;21.38;16.63;;;34.60;32.60;;;;;;4968569;28;20033;-87
2021/06/22 03:04:52;;;;;;;19.52;16.65;;;34.60;32.90;;;;;;4968922;28;20056;-87
2021/06/22 03:07:18;;;;;;;21.20;17.90;;;34.50;32.90;;;;;;4968867;28;20044;-86
2021/06/22 03:09:46;;;;;;;19.70;17.80;;;34.40;33.00;;;;;;4988544;28;20033;-87
2021/06/22 03:12:12;;;;;;;21.30;19.23;;;34.10;33.50;;;;;;4978100;28;20037;-91
2021/06/22 03:14:38;;;;;;;20.75;18.55;;;33.70;34.10;;;;;;4981536;28;20033;-90
2021/06/22 03:17:05;;;;;;;20.92;18.77;;;33.40;34.90;;;;;;4964189;28;20041;-90
2021/06/22 03:19:31;;;;;;;22.00;19.63;;;33.10;35.60;;;;;;4996519;28;20032;-90
2021/06/22 03:21:57;;;;;;;30.77;20.50;;;32.90;36.40;;;;;;4981228;28;20052;-90
2021/06/22 03:24:23;;;;;;;27.98;20.38;;;32.70;37.30;;;;;;4976668;28;20041;-89
2021/06/22 03:26:50;;;;;;;30.95;20.38;;;32.50;37.70;;;;;;4958381;28;20508;-89
2021/06/22 03:29:17;;;;;;;24.30;19.73;;;32.40;38.20;;;;;;4979745;28;20033;-90
2021/06/22 03:31:43;;;;;;;32.30;21.27;;;32.30;38.30;;;;;;4978379;28;20507;-89
2021/06/22 03:34:10;;;;;;;22.85;20.10;;;32.20;38.40;;;;;;4961312;28;20477;-89
2021/06/22 03:36:36;;;;;;;27.60;20.30;;;32.20;40.00;;;;;;4960239;28;20063;-91
2021/06/22 03:39:03;;;;;;;23.27;19.65;;;32.20;39.00;;;;;;4994424;28;20040;-91
2021/06/22 03:41:32;;;;;;;31.15;20.88;;;32.10;38.90;;;;;;5011379;28;20056;-94
2021/06/22 03:43:58;;;;;;;28.02;19.10;;;32.10;38.90;;;;;;4966872;28;20036;-91
2021/06/22 03:46:25;;;;;;;27.33;18.70;;;32.10;38.90;;;;;;4983205;28;20121;-91
2021/06/22 03:48:51;;;;;;;26.73;16.75;;;32.10;38.90;;;;;;5003599;28;20066;-92
2021/06/22 03:51:17;;;;;;;28.67;16.67;;;32.20;38.80;;;;;;4982930;28;20048;-89
2021/06/22 03:53:44;;;;;;;26.42;16.85;;;32.30;38.50;;;;;;5026700;28;20033;-88
2021/06/22 03:56:10;;;;;;;29.08;16.45;;;32.30;38.40;;;;;;4974276;28;20043;-90
2021/06/22 03:58:37;;;;;;;20.75;14.52;;;32.40;38.20;;;;;;4958938;28;20044;-88
2021/06/22 04:01:04;;;;;;;23.00;15.43;;;32.50;37.90;;;;;;4975958;28;20044;-86
2021/06/22 04:03:30;;;;;;;20.83;15.38;;;32.60;37.60;;;;;;4990799;28;20140;-87
2021/06/22 04:05:57;;;;;;;23.05;14.93;;;32.70;37.10;;;;;;4974717;28;20040;-87
2021/06/22 04:08:23;;;;;;;26.00;15.45;;;32.80;37.00;;;;;;4975399;28;20043;-87
2021/06/22 04:10:50;;;;;;;25.27;15.68;;;32.80;36.70;;;;;;4976529;28;20056;-87
2021/06/22 04:13:16;;;;;;;26.65;15.27;;;32.90;36.60;;;;;;5012510;28;20032;-86
2021/06/22 04:15:42;;;;;;;24.33;15.95;;;33.00;36.60;;;;;;4997283;28;20037;-87
2021/06/22 04:18:09;;;;;;;24.80;15.60;;;33.10;36.20;;;;;;4981267;28;20060;-89
2021/06/22 04:20:37;;;;;;;29.63;16.77;;;33.30;36.00;;;;;;4998878;28;20041;-90
2021/06/22 04:23:04;;;;;;;30.52;15.93;;;33.40;35.60;;;;;;4981483;28;20033;-88
2021/06/22 04:25:30;;;;;;;23.35;15.65;;;33.50;35.50;;;;;;4980336;28;20523;-88
2021/06/22 04:27:59;;;;;;;25.63;15.73;;;33.60;35.20;;;;;;4979668;28;20100;-90
2021/06/22 04:30:26;;;;;;;24.75;15.63;;;33.60;34.90;;;;;;5001786;28;20531;-88
2021/06/22 04:32:53;;;;;;;27.50;16.70;;;33.70;34.70;;;;;;4983202;28;20045;-89
2021/06/22 04:35:19;;;;;;;25.08;15.68;;;33.80;34.60;;;;;;4977984;28;20041;-90
2021/06/22 04:37:45;;;;;;;18.88;14.60;;;33.80;34.20;;;;;;4991702;28;20048;-89
2021/06/22 04:40:12;;;;;;;23.52;14.95;;;33.90;34.40;;;;;;4976551;28;20531;-90
2021/06/22 04:42:39;;;;;;;26.08;15.63;;;34.00;34.30;;;;;;4993440;28;20419;-91
2021/06/22 04:45:07;;;;;;;20.58;15.20;;;34.20;34.20;;;;;;4959729;28;20044;-90
2021/06/22 04:47:33;;;;;;;23.98;13.73;;;34.30;33.70;;;;;;4959922;28;20047;-90
2021/06/22 04:49:59;;;;;;;24.15;14.10;;;34.70;33.10;;;;;;5008812;28;20033;-90
2021/06/22 04:52:26;;;;;;;26.67;14.90;;;35.60;31.90;;;;;;4975964;28;20036;-89
2021/06/22 04:54:52;;;;;;;29.38;13.57;;;36.70;30.30;;;;;;4944204;28;20033;-88
2021/06/22 04:57:20;;;;;;;34.00;14.02;;;37.50;29.30;;;;;;4960310;28;20044;-89
2021/06/22 04:59:47;;;;;;;19.10;13.00;;;38.20;28.70;;;;;;4960820;28;20040;-89
2021/06/22 05:02:13;;;;;;;21.95;12.68;;;39.30;27.20;;;;;;5025802;28;20032;-90
2021/06/22 05:04:40;;;;;;;22.88;12.18;;;40.80;25.00;;;;;;4992998;28;20097;-90
2021/06/22 05:07:07;;;;;;;25.00;11.77;;;42.40;22.90;;;;;;4975341;28;20136;-90
2021/06/22 05:09:33;;;;;;;18.83;11.07;;;43.90;20.70;;;;;;4975666;28;20482;-90
2021/06/22 05:11:59;;;;;;;21.77;11.57;;;45.20;18.70;;;;;;4975310;28;20064;-88
2021/06/22 05:14:26;;;;;;;15.82;9.73;;;46.50;17.20;;;;;;5008803;28;20024;-87
2021/06/22 05:16:52;;;;;;;16.80;9.05;;;47.50;15.50;;;;;;5009295;28;20029;-89
2021/06/22 05:19:18;;;;;;;16.17;8.88;;;48.40;14.10;;;;;;4976285;28;20186;-89
2021/06/22 05:21:45;;;;;;;15.40;8.10;;;49.20;13.10;;;;;;4990194;28;20573;-89
2021/06/22 05:24:12;;;;;;;19.13;8.68;;;49.70;12.40;;;;;;4973493;28;20048;-87
2021/06/22 05:26:39;;;;;;;17.35;7.93;;;50.40;11.70;;;;;;4957700;28;20102;-88
2021/06/22 05:29:05;;;;;;;13.60;6.55;;;51.00;10.80;;;;;;5006883;28;20041;-85
2021/06/22 05:31:31;;;;;;;17.38;7.75;;;51.50;10.10;;;;;;5006301;28;20059;-88
2021/06/22 05:33:58;;;;;;;26.25;13.52;;;51.90;9.50;;;;;;4989948;28;20047;-88
2021/06/22 05:36:24;;;;;;;23.77;14.73;;;52.30;9.00;;;;;;5004990;28;20104;-88
2021/06/22 05:38:51;;;;;;;26.52;12.73;;;52.70;8.70;;;;;;4973553;28;20086;-85
2021/06/22 05:41:17;;;;;;;14.32;8.73;;;53.10;8.20;;;;;;4989419;28;20044;-88
2021/06/22 05:43:43;;;;;;;19.33;14.45;;;53.50;7.70;;;;;;4988603;28;20527;-86
2021/06/22 05:46:10;;;;;;;18.17;11.30;;;54.20;7.50;;;;;;5023267;28;20078;-86
2021/06/22 05:48:36;;;;;;;19.13;12.18;;;54.50;7.20;;;;;;4988995;28;20200;-86
2021/06/22 05:51:02;;;;;;;22.02;11.63;;;54.80;7.10;;;;;;4941081;28;20067;-90
2021/06/22 05:53:29;;;;;;;22.77;11.48;;;55.20;6.70;;;;;;4972841;28;20033;-88
2021/06/22 05:55:55;;;;;;;22.70;10.98;;;55.40;6.40;;;;;;5005698;28;20511;-90
2021/06/22 05:58:22;;;;;;;20.67;11.30;;;55.40;6.20;;;;;;4989213;28;20037;-87
2021/06/22 06:00:48;;;;;;;25.88;10.60;;;55.60;6.30;;;;;;4990396;28;20032;-88
2021/06/22 06:03:15;;;;;;;20.98;11.35;;;55.90;5.90;;;;;;4989238;28;20511;-87
2021/06/22 06:05:41;;;;;;;24.48;11.48;;;56.10;5.70;;;;;;5005638;28;20078;-90
2021/06/22 06:08:08;;;;;;;20.40;11.57;;;56.30;5.60;;;;;;4973039;28;20029;-88
2021/06/22 06:10:34;;;;;;;19.92;10.60;;;56.40;5.30;;;;;;4989887;28;20106;-87
2021/06/22 06:13:01;;;;;;;16.75;8.70;;;56.50;5.20;;;;;;4974927;28;20029;-88
2021/06/22 06:15:27;;;;;;;13.68;9.27;;;56.40;4.90;;;;;;4975182;28;20039;-87
2021/06/22 06:17:53;;;;;;;10.20;7.05;;;56.40;5.10;;;;;;4990606;28;20037;-88
